createdAt,value
2023-03-24T00:02:11.151Z,8.55
2023-03-24T00:05:36.552Z,6.22
2023-03-24T00:08:58.364Z,8.20
2023-03-24T00:12:20.214Z,9.90
2023-03-24T00:15:42.347Z,9.85
2023-03-24T00:19:14.807Z,12.68
2023-03-24T00:22:42.119Z,13.68
2023-03-24T00:26:15.176Z,11.80
2023-03-24T00:29:38.133Z,12.88
2023-03-24T00:33:01.838Z,12.02
2023-03-24T00:36:28.870Z,12.48
2023-03-24T00:39:53.122Z,12.00
2023-03-24T00:43:15.195Z,11.25
2023-03-24T00:46:38.935Z,11.35
2023-03-24T00:50:01.914Z,10.98
2023-03-24T00:53:29.032Z,12.65
2023-03-24T00:56:55.697Z,18.75
2023-03-24T01:00:26.129Z,15.25
2023-03-24T01:03:50.539Z,11.93
2023-03-24T01:07:18.167Z,15.13
2023-03-24T01:10:42.650Z,15.68
2023-03-24T01:14:08.560Z,16.50
2023-03-24T01:17:30.849Z,17.33
2023-03-24T01:20:54.165Z,11.77
2023-03-24T01:24:25.747Z,17.15
2023-03-24T01:27:49.586Z,13.20
2023-03-24T01:31:12.262Z,16.85
2023-03-24T01:34:34.935Z,17.35
2023-03-24T01:37:58.133Z,18.20
2023-03-24T01:41:23.032Z,17.75
2023-03-24T01:45:01.935Z,18.08
2023-03-24T01:48:42.998Z,17.05
2023-03-24T01:52:13.986Z,17.10
2023-03-24T01:55:46.799Z,16.25
2023-03-24T01:59:24.918Z,15.68
2023-03-24T02:03:18.512Z,17.10
2023-03-24T02:06:53.947Z,15.10
2023-03-24T02:10:21.907Z,13.43
2023-03-24T02:13:44.773Z,20.77
2023-03-24T02:17:54.543Z,16.08
2023-03-24T02:22:08.067Z,15.20
2023-03-24T02:26:08.854Z,17.55
2023-03-24T02:29:59.852Z,10.60
2023-03-24T02:34:28.591Z,14.95
2023-03-24T02:38:53.529Z,13.18
2023-03-24T02:42:26.405Z,11.63
2023-03-24T02:46:23.150Z,10.68
2023-03-24T02:50:18.407Z,8.38
2023-03-24T02:54:16.472Z,9.45
2023-03-24T02:57:54.843Z,10.82
2023-03-24T03:01:54.725Z,9.30
2023-03-24T03:05:42.047Z,7.45
2023-03-24T03:09:12.074Z,7.05
2023-03-24T03:12:38.593Z,12.55
2023-03-24T03:16:10.205Z,7.40
2023-03-24T03:19:53.694Z,10.48
2023-03-24T03:23:41.058Z,5.05
2023-03-24T03:27:19.839Z,4.97
2023-03-24T03:30:49.631Z,7.32
2023-03-24T03:34:43.999Z,8.63
2023-03-24T03:38:29.335Z,4.78
2023-03-24T03:41:53.990Z,5.10
2023-03-24T03:45:16.182Z,5.72
2023-03-24T03:48:40.507Z,3.30
2023-03-24T03:52:03.154Z,6.53
2023-03-24T03:55:25.473Z,4.13
2023-03-24T03:58:49.094Z,4.38
2023-03-24T04:02:29.310Z,3.72
2023-03-24T04:06:21.332Z,3.38
2023-03-24T04:10:15.333Z,3.30
2023-03-24T04:14:02.542Z,2.92
2023-03-24T04:18:04.533Z,3.58
2023-03-24T04:22:24.319Z,4.90
2023-03-24T04:26:54.579Z,3.40
2023-03-24T04:30:50.387Z,3.22
2023-03-24T04:34:50.728Z,3.58
2023-03-24T04:38:36.256Z,2.92
2023-03-24T04:42:24.120Z,5.30
2023-03-24T04:45:58.141Z,2.78
2023-03-24T04:49:28.804Z,3.00
2023-03-24T04:53:09.672Z,2.67
2023-03-24T04:56:47.667Z,2.15
2023-03-24T05:00:46.602Z,3.05
2023-03-24T05:04:23.236Z,3.80
2023-03-24T05:07:45.052Z,3.45
2023-03-24T05:11:09.916Z,3.28
2023-03-24T05:14:35.332Z,4.88
2023-03-24T05:18:01.215Z,2.72
2023-03-24T05:21:33.011Z,3.42
2023-03-24T05:24:57.527Z,4.15
2023-03-24T05:28:19.484Z,3.25
2023-03-24T05:31:45.412Z,3.47
2023-03-24T05:35:15.953Z,3.05
2023-03-24T05:38:44.566Z,3.78
2023-03-24T05:42:11.493Z,3.42
2023-03-24T05:45:33.657Z,2.50
2023-03-24T05:48:57.473Z,3.08
2023-03-24T05:52:34.735Z,2.55
2023-03-24T05:56:19.863Z,4.82
2023-03-24T06:00:00.353Z,3.63
2023-03-24T06:03:53.442Z,3.47
2023-03-24T06:07:16.392Z,7.10
2023-03-24T06:10:44.105Z,2.72
2023-03-24T06:14:09.054Z,5.35
2023-03-24T06:17:46.642Z,3.70
2023-03-24T06:21:32.440Z,4.93
2023-03-24T06:24:58.966Z,1.75
2023-03-24T06:28:22.516Z,1.40
2023-03-24T06:31:48.930Z,3.45
2023-03-24T06:35:11.527Z,2.17
2023-03-24T06:38:44.592Z,2.17
2023-03-24T06:42:11.115Z,6.28
2023-03-24T06:45:40.078Z,1.33
2023-03-24T06:49:05.206Z,2.75
2023-03-24T06:52:27.837Z,2.45
2023-03-24T06:55:51.626Z,4.10
2023-03-24T06:59:23.679Z,2.20
2023-03-24T07:03:03.371Z,4.75
2023-03-24T07:06:27.325Z,2.20
2023-03-24T07:09:56.507Z,3.88
2023-03-24T07:13:24.200Z,3.00
2023-03-24T07:17:02.316Z,1.52
2023-03-24T07:20:36.499Z,2.40
2023-03-24T07:24:12.256Z,3.75
2023-03-24T07:27:48.771Z,5.80
2023-03-24T07:31:12.269Z,5.82
2023-03-24T07:34:36.935Z,3.95
2023-03-24T07:38:05.784Z,6.40
2023-03-24T07:41:29.226Z,4.97
2023-03-24T07:44:55.018Z,2.05
2023-03-24T07:48:21.215Z,10.52
2023-03-24T07:51:46.472Z,3.72
2023-03-24T07:55:17.575Z,3.05
2023-03-24T07:58:52.385Z,4.13
2023-03-24T08:02:22.263Z,6.43
2023-03-24T08:05:55.402Z,4.38
2023-03-24T08:09:27.781Z,4.97
2023-03-24T08:12:51.995Z,6.18
2023-03-24T08:16:15.702Z,6.45
2023-03-24T08:19:52.022Z,4.35
2023-03-24T08:23:20.942Z,4.22
2023-03-24T08:26:48.525Z,2.30
2023-03-24T08:30:17.083Z,3.97
2023-03-24T08:33:41.849Z,6.85
2023-03-24T08:37:08.842Z,6.47
2023-03-24T08:40:31.704Z,5.80
2023-03-24T08:43:53.561Z,6.65
2023-03-24T08:47:15.533Z,7.78
2023-03-24T08:50:41.778Z,10.55
2023-03-24T08:54:04.223Z,4.93
2023-03-24T08:57:28.495Z,3.25
2023-03-24T09:00:52.786Z,7.15
2023-03-24T09:04:14.777Z,3.67
2023-03-24T09:07:43.524Z,4.47
2023-03-24T09:11:07.816Z,4.10
2023-03-24T09:14:29.699Z,4.30
2023-03-24T09:17:53.693Z,4.03
2023-03-24T09:21:16.948Z,6.43
2023-03-24T09:24:39.910Z,4.88
2023-03-24T09:28:04.386Z,5.40
2023-03-24T09:31:26.431Z,6.47
2023-03-24T09:34:49.319Z,5.70
2023-03-24T09:38:12.143Z,5.78
2023-03-24T09:41:35.164Z,8.05
2023-03-24T09:45:21.476Z,8.73
2023-03-24T09:48:57.500Z,7.18
2023-03-24T09:52:39.466Z,8.65
2023-03-24T09:56:17.708Z,7.13
2023-03-24T09:59:41.893Z,8.15
2023-03-24T10:03:22.882Z,7.22
2023-03-24T10:06:48.342Z,7.75
2023-03-24T10:10:37.965Z,7.18
2023-03-24T10:14:13.900Z,8.13
2023-03-24T10:18:38.055Z,4.93
2023-03-24T10:22:25.802Z,4.45
2023-03-24T10:26:21.691Z,6.78
2023-03-24T10:29:46.524Z,6.00
2023-03-24T10:33:12.259Z,15.50
2023-03-24T10:36:35.891Z,10.20
2023-03-24T10:40:00.597Z,8.50
2023-03-24T10:43:26.165Z,5.18
2023-03-24T10:46:55.418Z,27.55
2023-03-24T10:50:25.459Z,5.85
2023-03-24T10:53:49.825Z,23.45
2023-03-24T10:57:18.915Z,6.50
2023-03-24T11:00:45.264Z,5.47
2023-03-24T11:04:13.725Z,7.22
2023-03-24T11:07:42.229Z,6.28
2023-03-24T11:11:34.865Z,10.63
2023-03-24T11:15:22.453Z,7.30
2023-03-24T11:19:04.148Z,5.90
2023-03-24T11:22:27.164Z,4.32
2023-03-24T11:26:18.764Z,5.90
2023-03-24T11:29:41.701Z,4.18
2023-03-24T11:33:04.899Z,9.00
2023-03-24T11:36:44.038Z,5.75
2023-03-24T11:40:13.703Z,6.15
2023-03-24T11:43:35.735Z,5.97
2023-03-24T11:47:23.898Z,6.00
2023-03-24T11:50:47.673Z,14.18
2023-03-24T11:54:18.559Z,4.60
2023-03-24T11:58:01.816Z,5.93
2023-03-24T12:01:31.787Z,5.28
2023-03-24T12:05:36.701Z,11.68
2023-03-24T12:09:09.248Z,8.98
2023-03-24T12:13:18.961Z,4.97
2023-03-24T12:17:17.752Z,8.38
2023-03-24T12:21:21.494Z,5.07
2023-03-24T12:25:27.736Z,11.68
2023-03-24T12:29:02.952Z,3.88
2023-03-24T12:33:08.490Z,2.92
2023-03-24T12:36:53.855Z,4.90
2023-03-24T12:40:40.578Z,3.67
2023-03-24T12:44:30.372Z,6.25
2023-03-24T12:48:12.495Z,5.07
2023-03-24T12:52:00.468Z,5.30
2023-03-24T12:55:44.685Z,6.43
2023-03-24T12:59:32.053Z,6.97
2023-03-24T13:03:11.661Z,8.50
2023-03-24T13:07:01.166Z,7.90
2023-03-24T13:10:33.826Z,5.78
2023-03-24T13:13:59.785Z,3.10
2023-03-24T13:17:30.830Z,6.38
2023-03-24T13:20:59.695Z,11.52
2023-03-24T13:24:25.614Z,7.13
2023-03-24T13:27:57.004Z,6.45
2023-03-24T13:31:23.906Z,7.82
2023-03-24T13:35:37.443Z,7.07
2023-03-24T13:39:12.382Z,7.10
2023-03-24T13:42:45.409Z,6.03
2023-03-24T13:46:13.676Z,5.13
2023-03-24T13:49:36.386Z,6.50
2023-03-24T13:53:15.376Z,6.70
2023-03-24T13:57:01.426Z,7.97
2023-03-24T14:00:29.546Z,5.53
2023-03-24T14:04:19.320Z,4.22
2023-03-24T14:07:41.089Z,8.48
2023-03-24T14:11:03.090Z,7.40
2023-03-24T14:14:29.656Z,12.30
2023-03-24T14:17:56.560Z,5.55
2023-03-24T14:21:31.493Z,4.05
2023-03-24T14:25:14.234Z,8.25
2023-03-24T14:28:46.530Z,5.50
2023-03-24T14:32:20.545Z,8.52
2023-03-24T14:35:48.938Z,7.10
2023-03-24T14:39:39.077Z,5.85
2023-03-24T14:43:28.517Z,6.32
2023-03-24T14:46:51.808Z,4.93
2023-03-24T14:50:23.649Z,7.65
2023-03-24T14:53:58.558Z,7.28
2023-03-24T14:57:45.234Z,6.32
2023-03-24T15:01:09.210Z,9.25
2023-03-24T15:04:33.578Z,5.18
2023-03-24T15:08:13.628Z,9.75
2023-03-24T15:11:41.273Z,3.83
2023-03-24T15:15:04.574Z,6.53
2023-03-24T15:18:27.819Z,4.82
2023-03-24T15:22:02.810Z,2.88
2023-03-24T15:25:28.134Z,4.95
2023-03-24T15:29:05.033Z,6.65
2023-03-24T15:32:31.942Z,8.57
2023-03-24T15:36:00.820Z,9.98
2023-03-24T15:39:37.874Z,7.57
2023-03-24T15:43:04.033Z,6.53
2023-03-24T15:46:31.239Z,9.23
2023-03-24T15:49:58.205Z,4.65
2023-03-24T15:53:20.601Z,11.48
2023-03-24T15:56:42.457Z,8.07
2023-03-24T16:00:15.975Z,5.18
2023-03-24T16:03:37.806Z,5.30
2023-03-24T16:07:00.643Z,3.80
2023-03-24T16:10:32.362Z,8.45
2023-03-24T16:13:58.892Z,9.13
2023-03-24T16:17:28.940Z,11.63
2023-03-24T16:20:51.914Z,4.90
2023-03-24T16:24:16.119Z,10.65
2023-03-24T16:27:39.304Z,7.43
2023-03-24T16:31:06.623Z,8.68
2023-03-24T16:34:29.573Z,2.85
2023-03-24T16:37:52.575Z,5.80
2023-03-24T16:41:16.524Z,7.18
2023-03-24T16:44:39.303Z,9.18
2023-03-24T16:48:01.832Z,6.68
2023-03-24T16:51:27.045Z,5.03
2023-03-24T16:54:50.476Z,3.72
2023-03-24T16:58:19.134Z,7.03
2023-03-24T17:01:45.765Z,4.13
2023-03-24T17:05:27.549Z,4.45
2023-03-24T17:08:49.571Z,1.83
2023-03-24T17:12:11.462Z,3.15
2023-03-24T17:15:33.557Z,4.22
2023-03-24T17:18:56.012Z,2.50
2023-03-24T17:22:19.964Z,8.07
2023-03-24T17:25:45.827Z,2.70
2023-03-24T17:29:13.571Z,3.33
2023-03-24T17:32:35.497Z,2.10
2023-03-24T17:35:57.463Z,4.45
2023-03-24T17:39:21.478Z,3.47
2023-03-24T17:42:46.676Z,4.30
2023-03-24T17:46:13.276Z,4.00
2023-03-24T17:49:35.374Z,5.28
2023-03-24T17:52:57.228Z,7.28
2023-03-24T17:56:19.242Z,6.43
2023-03-24T17:59:41.225Z,5.30
2023-03-24T18:03:05.092Z,2.53
2023-03-24T18:06:27.532Z,4.63
2023-03-24T18:09:49.605Z,5.82
2023-03-24T18:13:12.389Z,13.75
2023-03-24T18:16:39.430Z,367.20
2023-03-24T18:20:09.817Z,816.95
2023-03-24T18:23:31.860Z,1899.90
2023-03-24T18:26:53.661Z,1514.10
2023-03-24T18:30:16.883Z,1999.90
2023-03-24T18:33:39.259Z,1484.22
2023-03-24T18:37:01.542Z,784.00
2023-03-24T18:40:24.452Z,117.07
2023-03-24T18:43:47.617Z,8.85
2023-03-24T18:47:15.746Z,3.75
2023-03-24T18:50:40.483Z,6.60
2023-03-24T18:54:02.348Z,7.50
2023-03-24T18:57:26.176Z,4.28
2023-03-24T19:00:53.393Z,5.80
2023-03-24T19:04:17.286Z,8.57
2023-03-24T19:07:39.161Z,5.57
2023-03-24T19:11:01.475Z,7.45
2023-03-24T19:14:25.169Z,11.48
2023-03-24T19:17:47.087Z,3.58
2023-03-24T19:21:10.039Z,5.60
2023-03-24T19:24:31.855Z,2.67
2023-03-24T19:27:53.637Z,4.50
2023-03-24T19:31:19.760Z,3.60
2023-03-24T19:34:41.767Z,2.15
2023-03-24T19:38:05.399Z,4.57
2023-03-24T19:41:27.509Z,2.07
2023-03-24T19:44:49.495Z,5.63
2023-03-24T19:48:12.309Z,3.07
2023-03-24T19:51:34.171Z,3.13
2023-03-24T19:55:01.264Z,2.40
2023-03-24T19:58:24.828Z,3.33
2023-03-24T20:01:50.628Z,4.83
2023-03-24T20:05:14.982Z,5.23
2023-03-24T20:08:39.120Z,4.13
2023-03-24T20:12:01.201Z,5.53
2023-03-24T20:15:28.983Z,1.53
2023-03-24T20:18:53.934Z,2.67
2023-03-24T20:22:16.823Z,2.10
2023-03-24T20:25:43.580Z,0.63
2023-03-24T20:29:09.539Z,2.87
2023-03-24T20:32:31.443Z,6.10
2023-03-24T20:35:56.304Z,2.60
2023-03-24T20:39:20.406Z,2.20
2023-03-24T20:42:51.135Z,5.03
2023-03-24T20:46:17.642Z,2.57
2023-03-24T20:49:40.571Z,2.63
2023-03-24T20:53:02.429Z,1.67
2023-03-24T20:56:24.933Z,15.07
2023-03-24T20:59:48.433Z,7.60
2023-03-24T21:03:18.199Z,6.10
2023-03-24T21:06:40.295Z,7.33
2023-03-24T21:10:06.963Z,5.13
2023-03-24T21:13:37.372Z,0.80
2023-03-24T21:17:00.024Z,3.47
2023-03-24T21:20:22.318Z,2.27
2023-03-24T21:23:44.234Z,0.70
2023-03-24T21:27:12.017Z,1.70
2023-03-24T21:30:36.747Z,1.43
2023-03-24T21:34:00.732Z,2.83
2023-03-24T21:37:25.420Z,1.03
2023-03-24T21:40:47.225Z,2.07
2023-03-24T21:44:10.426Z,3.50
2023-03-24T21:47:34.427Z,1.23
2023-03-24T21:50:57.359Z,2.80
2023-03-24T21:54:33.256Z,2.13
2023-03-24T21:57:55.362Z,3.07
2023-03-24T22:01:17.320Z,1.67
2023-03-24T22:04:41.599Z,3.30
2023-03-24T22:08:08.925Z,1.27
2023-03-24T22:11:42.412Z,5.17
2023-03-24T22:15:05.370Z,5.80
2023-03-24T22:18:31.709Z,3.43
2023-03-24T22:22:00.322Z,3.93
2023-03-24T22:25:24.251Z,3.37
2023-03-24T22:28:46.184Z,3.43
2023-03-24T22:32:15.468Z,2.23
2023-03-24T22:35:42.233Z,1.57
2023-03-24T22:39:04.139Z,3.33
2023-03-24T22:42:25.957Z,4.10
2023-03-24T22:45:50.021Z,7.70
2023-03-24T22:49:11.950Z,4.43
2023-03-24T22:52:33.933Z,5.50
2023-03-24T22:55:57.067Z,3.47
2023-03-24T22:59:19.114Z,3.73
2023-03-24T23:02:41.082Z,3.83
2023-03-24T23:06:03.821Z,5.03
2023-03-24T23:09:26.586Z,4.20
2023-03-24T23:12:51.780Z,1.33
2023-03-24T23:16:13.650Z,3.33
2023-03-24T23:19:47.877Z,4.20
2023-03-24T23:23:10.868Z,5.17
2023-03-24T23:26:32.872Z,5.33
2023-03-24T23:29:54.800Z,5.13
2023-03-24T23:33:16.769Z,5.83
2023-03-24T23:36:49.710Z,10.37
2023-03-24T23:40:14.952Z,10.67
2023-03-24T23:43:37.267Z,6.70
2023-03-24T23:47:00.129Z,3.10
2023-03-24T23:50:21.958Z,5.47
2023-03-24T23:53:43.768Z,6.73
2023-03-24T23:57:05.669Z,9.13
